Time;durP1;ratioP1;P1;durP2;ratioP2;P2;SDS_P1;SDS_P2;PMS_P1;PMS_P2;Temp;Humidity;BMP_temperature;BMP_pressure;BME280_temperature;BME280_humidity;BME280_pressure;Samples;Min_cycle;Max_cycle;Signal;HPM_P1;HPM_P2
2023/03/12 00:00:14;;;;;;;20.63;10.85;;;-0.40;1.00;;;;;;7390851;19;20380;-66
2023/03/12 00:02:44;;;;;;;17.23;9.57;;;-0.40;1.00;;;;;;7370951;19;20007;-66
2023/03/12 00:05:14;;;;;;;16.52;9.10;;;-0.50;1.00;;;;;;7369450;19;20358;-66
2023/03/12 00:07:46;;;;;;;15.13;9.15;;;-0.40;1.00;;;;;;7371874;19;20010;-65
2023/03/12 00:10:16;;;;;;;18.05;9.60;;;-0.50;1.00;;;;;;7370047;19;20382;-66
2023/03/12 00:12:46;;;;;;;16.50;10.13;;;-0.50;1.00;;;;;;7371575;19;20014;-66
2023/03/12 00:15:16;;;;;;;14.38;9.95;;;-0.50;1.00;;;;;;7391148;19;20014;-66
2023/03/12 00:17:46;;;;;;;20.13;10.23;;;-0.50;1.00;;;;;;7371276;19;20034;-67
2023/03/12 00:20:16;;;;;;;19.27;11.45;;;-0.50;1.00;;;;;;7368537;19;20470;-66
2023/03/12 00:22:48;;;;;;;18.02;10.93;;;-0.50;1.00;;;;;;7370753;19;20478;-67
2023/03/12 00:25:19;;;;;;;17.88;10.65;;;-0.60;1.00;;;;;;7368390;19;20018;-65
2023/03/12 00:27:49;;;;;;;16.45;10.90;;;-0.60;1.00;;;;;;7370090;19;20015;-66
2023/03/12 00:30:19;;;;;;;20.45;12.30;;;-0.60;1.00;;;;;;7390414;19;20014;-65
2023/03/12 00:32:50;;;;;;;18.98;10.88;;;-0.70;1.00;;;;;;7373091;19;20010;-66
2023/03/12 00:35:20;;;;;;;22.95;11.02;;;-0.70;1.00;;;;;;7370721;19;20466;-66
2023/03/12 00:37:52;;;;;;;21.42;12.05;;;-0.60;1.00;;;;;;7372460;19;20482;-66
2023/03/12 00:40:22;;;;;;;19.35;12.70;;;-0.70;1.00;;;;;;7368650;19;20045;-66
2023/03/12 00:42:52;;;;;;;15.70;11.65;;;-0.80;1.00;;;;;;7369333;19;20015;-66
2023/03/12 00:45:21;;;;;;;18.17;11.38;;;-0.80;1.00;;;;;;7389668;19;20019;-66
2023/03/12 00:47:51;;;;;;;21.25;11.98;;;-0.90;1.00;;;;;;7370476;19;20693;-65
2023/03/12 00:50:21;;;;;;;22.23;12.40;;;-0.90;1.00;;;;;;7365644;19;20013;-67
2023/03/12 00:52:54;;;;;;;16.80;11.40;;;-0.90;1.00;;;;;;7369118;19;20017;-67
2023/03/12 00:55:24;;;;;;;18.67;11.55;;;-0.90;1.00;;;;;;7366812;19;20546;-67
2023/03/12 00:57:53;;;;;;;19.73;11.07;;;-0.90;1.00;;;;;;7370198;19;20014;-66
2023/03/12 01:00:23;;;;;;;17.55;10.93;;;-1.00;1.00;;;;;;7388936;19;20006;-66
2023/03/12 01:02:53;;;;;;;22.10;11.75;;;-0.90;1.00;;;;;;7369730;19;20019;-67
2023/03/12 01:05:24;;;;;;;17.13;11.60;;;-0.80;1.00;;;;;;7366610;19;20006;-66
2023/03/12 01:07:56;;;;;;;18.65;11.02;;;-0.80;1.00;;;;;;7369034;19;20018;-66
2023/03/12 01:10:26;;;;;;;14.32;9.48;;;-0.70;1.00;;;;;;7366990;19;20094;-65
2023/03/12 01:12:56;;;;;;;18.98;8.75;;;-0.70;1.00;;;;;;7369442;19;20017;-66
2023/03/12 01:15:26;;;;;;;12.95;8.25;;;-0.50;1.00;;;;;;7388399;19;20017;-65
2023/03/12 01:17:56;;;;;;;15.93;7.75;;;-0.50;1.00;;;;;;7369822;19;20011;-66
2023/03/12 01:20:26;;;;;;;14.68;7.35;;;-0.50;1.00;;;;;;7364838;19;20090;-66
2023/03/12 01:22:58;;;;;;;13.85;7.82;;;-0.50;1.00;;;;;;7368792;19;20010;-65
2023/03/12 01:25:28;;;;;;;13.35;8.23;;;-0.40;1.00;;;;;;7367435;19;20017;-66
2023/03/12 01:27:58;;;;;;;12.45;7.82;;;-0.40;1.00;;;;;;7368597;19;20010;-66
2023/03/12 01:30:27;;;;;;;15.93;8.63;;;-0.40;1.00;;;;;;7388331;19;20014;-65
2023/03/12 01:32:57;;;;;;;14.30;8.40;;;-0.30;1.00;;;;;;7368851;19;20010;-66
2023/03/12 01:35:28;;;;;;;15.43;7.85;;;-0.20;1.00;;;;;;7366190;19;20122;-66
2023/03/12 01:38:00;;;;;;;16.38;8.60;;;-0.20;1.00;;;;;;7368939;19;20015;-66
2023/03/12 01:40:30;;;;;;;17.58;7.97;;;-0.20;1.00;;;;;;7366396;19;20017;-66
2023/03/12 01:43:00;;;;;;;15.55;8.40;;;-0.10;1.00;;;;;;7367792;19;20018;-66
2023/03/12 01:46:00;;;;;;;15.43;8.85;;;-0.10;1.00;;;;;;7388263;19;20011;-65
2023/03/12 01:48:34;;;;;;;14.73;7.55;;;0.00;1.00;;;;;;7264993;19;2004425;-66
2023/03/12 01:51:04;;;;;;;11.98;8.15;;;0.00;1.00;;;;;;7390743;19;20014;-66
2023/03/12 01:53:38;;;;;;;14.60;8.10;;;0.00;1.00;;;;;;7366801;19;20002;-65
2023/03/12 01:56:09;;;;;;;14.90;7.93;;;0.10;1.00;;;;;;7372526;19;20038;-66
2023/03/12 01:58:40;;;;;;;15.40;8.25;;;0.10;1.00;;;;;;7374935;19;20019;-66
2023/03/12 02:01:10;;;;;;;15.07;8.75;;;0.10;1.00;;;;;;7374271;19;20018;-66
2023/03/12 02:03:41;;;;;;;15.38;8.15;;;0.10;1.00;;;;;;7373278;19;20010;-66
2023/03/12 02:06:15;;;;;;;14.68;7.93;;;0.20;1.00;;;;;;7396962;19;20014;-65
2023/03/12 02:08:49;;;;;;;13.15;7.32;;;0.20;1.00;;;;;;7374643;19;20019;-66
2023/03/12 02:11:19;;;;;;;14.75;7.88;;;0.20;1.00;;;;;;7374566;19;20074;-66
2023/03/12 02:13:49;;;;;;;15.00;8.15;;;0.10;1.00;;;;;;7373016;19;20478;-65
2023/03/12 02:16:18;;;;;;;15.00;7.50;;;0.20;1.00;;;;;;7375637;19;20358;-66
2023/03/12 02:18:52;;;;;;;10.65;7.25;;;0.10;1.00;;;;;;7374268;19;20387;-66
2023/03/12 02:21:24;;;;;;;15.52;7.28;;;0.20;1.00;;;;;;7394890;19;20035;-66
2023/03/12 02:24:03;;;;;;;12.55;7.18;;;0.10;1.00;;;;;;7373227;19;20336;-66
2023/03/12 02:26:38;;;;;;;10.38;6.13;;;0.10;1.00;;;;;;7373654;19;20019;-67
2023/03/12 02:29:10;;;;;;;9.80;6.30;;;0.10;1.00;;;;;;7373349;19;20010;-66
2023/03/12 02:31:44;;;;;;;9.80;6.15;;;0.10;1.00;;;;;;7373882;19;20011;-66
2023/03/12 02:34:14;;;;;;;12.63;6.20;;;0.00;1.00;;;;;;7372402;19;20359;-66
2023/03/12 02:36:44;;;;;;;12.25;7.07;;;0.10;1.00;;;;;;7373489;19;20086;-66
2023/03/12 02:39:14;;;;;;;14.73;6.90;;;0.00;1.00;;;;;;7395161;19;20010;-65
2023/03/12 02:41:52;;;;;;;14.63;6.97;;;0.10;1.00;;;;;;7371648;19;20010;-65
2023/03/12 02:44:23;;;;;;;12.50;7.50;;;0.20;1.00;;;;;;7370973;19;20434;-66
2023/03/12 02:46:56;;;;;;;11.52;7.25;;;0.10;1.00;;;;;;7373179;19;20022;-66
2023/03/12 02:49:29;;;;;;;13.75;7.53;;;0.20;1.00;;;;;;7370582;19;20011;-67
2023/03/12 02:51:59;;;;;;;14.65;8.13;;;0.20;1.00;;;;;;7373624;19;20107;-65
2023/03/12 02:54:30;;;;;;;13.27;7.35;;;0.10;1.00;;;;;;7393356;19;20018;-66
2023/03/12 02:57:02;;;;;;;13.50;7.82;;;0.20;1.00;;;;;;7374116;19;20102;-66
2023/03/12 02:59:32;;;;;;;15.27;7.55;;;0.20;1.00;;;;;;7371272;19;20018;-66
2023/03/12 03:02:03;;;;;;;10.35;7.25;;;0.10;1.00;;;;;;7371440;19;20011;-67
2023/03/12 03:04:33;;;;;;;12.32;7.25;;;0.10;1.00;;;;;;7370103;19;20010;-65
2023/03/12 03:07:03;;;;;;;8.85;6.22;;;0.00;1.00;;;;;;7372774;19;20082;-65
2023/03/12 03:09:33;;;;;;;9.80;6.22;;;-0.10;1.00;;;;;;7371090;19;20015;-65
2023/03/12 03:12:06;;;;;;;10.63;6.82;;;-0.20;1.00;;;;;;7394599;19;20471;-66
2023/03/12 03:14:35;;;;;;;11.63;6.40;;;-0.10;1.00;;;;;;7370853;19;20007;-66
2023/03/12 03:17:06;;;;;;;10.73;6.80;;;-0.10;1.00;;;;;;7373627;19;20017;-66
2023/03/12 03:19:35;;;;;;;12.10;7.07;;;-0.10;1.00;;;;;;7371829;19;20376;-66
2023/03/12 03:22:05;;;;;;;13.27;7.50;;;-0.20;1.00;;;;;;7372266;19;20363;-66
2023/03/12 03:24:35;;;;;;;9.70;6.97;;;-0.20;1.00;;;;;;7371005;19;20542;-66
2023/03/12 03:27:07;;;;;;;10.77;7.20;;;-0.10;1.00;;;;;;7394414;19;20020;-66
2023/03/12 03:29:38;;;;;;;10.68;7.60;;;-0.10;1.00;;;;;;7370022;19;20081;-66
2023/03/12 03:32:08;;;;;;;13.18;7.20;;;-0.10;1.00;;;;;;7372728;19;20025;-67
2023/03/12 03:34:38;;;;;;;13.80;7.60;;;0.00;1.00;;;;;;7369650;19;20478;-66
2023/03/12 03:37:08;;;;;;;12.18;7.60;;;0.00;1.00;;;;;;7372618;19;20070;-67
2023/03/12 03:39:38;;;;;;;12.82;7.80;;;0.00;1.00;;;;;;7369202;19;20042;-67
2023/03/12 03:42:10;;;;;;;11.70;7.78;;;0.00;1.00;;;;;;7392252;19;20014;-66
2023/03/12 03:44:40;;;;;;;13.70;7.75;;;0.20;1.00;;;;;;7369520;19;20016;-65
2023/03/12 03:47:10;;;;;;;12.98;7.80;;;0.20;1.00;;;;;;7371864;19;20017;-66
2023/03/12 03:49:39;;;;;;;12.55;7.88;;;0.20;1.00;;;;;;7369540;19;20018;-66
2023/03/12 03:52:09;;;;;;;13.82;7.47;;;0.20;1.00;;;;;;7371748;19;20479;-66
2023/03/12 03:54:39;;;;;;;10.98;6.85;;;0.20;1.00;;;;;;7369237;19;20011;-66
2023/03/12 03:57:11;;;;;;;14.05;7.90;;;0.30;1.00;;;;;;7393734;19;20011;-66
2023/03/12 03:59:41;;;;;;;13.95;8.10;;;0.40;1.00;;;;;;7369454;19;20597;-65
2023/03/12 04:02:11;;;;;;;13.35;6.53;;;0.50;1.00;;;;;;7370991;19;20395;-66
2023/03/12 04:04:41;;;;;;;12.20;7.63;;;0.50;1.00;;;;;;7369251;19;20071;-65
2023/03/12 04:07:11;;;;;;;16.55;8.18;;;0.50;1.00;;;;;;7371717;19;20043;-66
2023/03/12 04:09:40;;;;;;;12.07;7.63;;;0.50;1.00;;;;;;7369060;19;20015;-65
2023/03/12 04:12:13;;;;;;;15.23;7.65;;;0.60;1.00;;;;;;7394358;19;20010;-66
2023/03/12 04:14:43;;;;;;;12.18;7.57;;;0.60;1.00;;;;;;7371385;19;20589;-66
2023/03/12 04:17:13;;;;;;;11.57;6.82;;;0.60;1.00;;;;;;7372257;19;20018;-63
2023/03/12 04:19:42;;;;;;;13.07;7.32;;;0.60;1.00;;;;;;7369566;19;20106;-66
2023/03/12 04:22:12;;;;;;;11.10;6.88;;;0.70;1.00;;;;;;7370713;19;20466;-66
2023/03/12 04:24:42;;;;;;;14.85;7.75;;;0.70;1.00;;;;;;7369418;19;20785;-66
2023/03/12 04:27:14;;;;;;;11.73;6.57;;;0.70;1.00;;;;;;7393057;19;20011;-66
2023/03/12 04:29:44;;;;;;;9.60;6.55;;;0.70;1.00;;;;;;7368220;19;20386;-65
2023/03/12 04:32:14;;;;;;;15.98;7.10;;;0.80;1.00;;;;;;7370393;19;20194;-65
2023/03/12 04:34:44;;;;;;;10.00;7.13;;;0.80;1.00;;;;;;7367362;19;20088;-65
2023/03/12 04:37:15;;;;;;;9.90;6.60;;;0.80;1.00;;;;;;7370338;19;20034;-65
2023/03/12 04:39:46;;;;;;;12.45;7.25;;;0.90;1.00;;;;;;7368494;19;20007;-66
2023/03/12 04:42:18;;;;;;;12.85;6.88;;;0.90;1.00;;;;;;7392089;19;20010;-66
2023/03/12 04:44:48;;;;;;;12.07;7.43;;;0.90;1.00;;;;;;7368212;19;20411;-66
2023/03/12 04:47:18;;;;;;;12.40;6.93;;;0.90;1.00;;;;;;7370141;19;20417;-66
2023/03/12 04:49:48;;;;;;;10.75;6.68;;;0.90;1.00;;;;;;7367872;19;20014;-66
2023/03/12 04:52:18;;;;;;;13.80;7.45;;;0.90;1.00;;;;;;7370343;19;20010;-65
2023/03/12 04:54:48;;;;;;;10.65;6.63;;;1.00;1.00;;;;;;7367498;19;20355;-65
2023/03/12 04:57:21;;;;;;;9.40;6.45;;;1.00;1.00;;;;;;7392347;19;20006;-66
2023/03/12 04:59:51;;;;;;;10.80;6.65;;;1.00;1.00;;;;;;7367597;19;20014;-65
2023/03/12 05:02:20;;;;;;;10.98;6.85;;;1.00;1.00;;;;;;7368663;19;20454;-65
2023/03/12 05:04:50;;;;;;;10.23;6.25;;;1.00;1.00;;;;;;7367826;19;20365;-66
2023/03/12 05:07:20;;;;;;;11.43;6.78;;;1.00;1.00;;;;;;7368782;19;20010;-66
2023/03/12 05:09:50;;;;;;;14.60;6.35;;;1.10;1.00;;;;;;7367646;19;20015;-66
2023/03/12 05:12:22;;;;;;;12.75;6.25;;;1.10;1.00;;;;;;7390874;19;20404;-66
2023/03/12 05:14:52;;;;;;;10.20;6.22;;;1.10;1.00;;;;;;7367399;19;20011;-66
2023/03/12 05:17:22;;;;;;;11.20;6.68;;;1.10;1.00;;;;;;7368032;19;20052;-66
2023/03/12 05:19:52;;;;;;;10.63;6.70;;;1.20;1.00;;;;;;7366867;19;20452;-66
2023/03/12 05:22:22;;;;;;;11.55;6.47;;;1.30;1.00;;;;;;7367908;19;20689;-66
2023/03/12 05:24:51;;;;;;;11.23;6.13;;;1.30;1.00;;;;;;7367169;19;20020;-66
2023/03/12 05:27:24;;;;;;;10.23;6.13;;;1.30;1.00;;;;;;7389579;19;20082;-66
2023/03/12 05:29:55;;;;;;;12.40;6.70;;;1.30;1.00;;;;;;7366465;19;20077;-66
2023/03/12 05:32:24;;;;;;;11.35;6.10;;;1.30;1.00;;;;;;7366353;19;20003;-66
2023/03/12 05:34:54;;;;;;;11.27;6.15;;;1.30;1.00;;;;;;7366063;19;20467;-66
2023/03/12 05:37:24;;;;;;;9.55;6.18;;;1.30;1.00;;;;;;7367769;19;20653;-66
2023/03/12 05:39:55;;;;;;;13.93;6.65;;;1.40;1.00;;;;;;7366564;19;20014;-66
2023/03/12 05:42:28;;;;;;;9.88;6.50;;;1.40;1.00;;;;;;7389341;19;20025;-66
2023/03/12 05:44:59;;;;;;;10.32;6.22;;;1.40;1.00;;;;;;7366483;19;20011;-66
2023/03/12 05:47:29;;;;;;;10.52;6.10;;;1.40;1.00;;;;;;7367228;19;20014;-66
2023/03/12 05:49:58;;;;;;;11.55;6.30;;;1.40;1.00;;;;;;7364808;19;20014;-66
2023/03/12 05:52:28;;;;;;;13.02;6.30;;;1.50;1.00;;;;;;7367903;19;20010;-66
2023/03/12 05:54:58;;;;;;;10.23;6.15;;;1.40;1.00;;;;;;7365555;19;20007;-66
2023/03/12 05:57:31;;;;;;;11.68;6.03;;;1.40;1.00;;;;;;7391045;19;20013;-66
2023/03/12 06:00:01;;;;;;;12.35;6.18;;;1.50;1.00;;;;;;7366031;19;20018;-65
2023/03/12 06:02:31;;;;;;;8.82;6.13;;;1.50;1.00;;;;;;7367534;19;20007;-66
2023/03/12 06:05:00;;;;;;;9.52;5.95;;;1.50;1.00;;;;;;7366172;19;20014;-65
2023/03/12 06:07:30;;;;;;;15.25;6.38;;;1.50;1.00;;;;;;7368149;19;20066;-65
2023/03/12 06:10:00;;;;;;;11.45;5.95;;;1.50;1.00;;;;;;7366349;19;20078;-65
2023/03/12 06:12:32;;;;;;;9.15;5.68;;;1.40;1.00;;;;;;7389163;19;20006;-66
2023/03/12 06:15:02;;;;;;;12.35;5.82;;;1.50;1.00;;;;;;7366089;19;20332;-65
2023/03/12 06:17:33;;;;;;;12.43;6.45;;;1.40;1.00;;;;;;7367364;19;20016;-65
2023/03/12 06:20:02;;;;;;;10.48;5.40;;;1.50;1.00;;;;;;7365101;19;20011;-65
2023/03/12 06:22:32;;;;;;;12.48;6.25;;;1.60;1.00;;;;;;7366780;19;20015;-65
2023/03/12 06:25:02;;;;;;;9.52;5.68;;;1.60;1.00;;;;;;7365326;19;20029;-65
2023/03/12 06:27:34;;;;;;;9.27;6.20;;;1.50;1.00;;;;;;7376215;19;20007;-66
2023/03/12 06:30:05;;;;;;;7.75;5.55;;;1.60;1.00;;;;;;7386194;19;20366;-65
2023/03/12 06:32:35;;;;;;;9.73;5.60;;;1.50;1.00;;;;;;7366433;19;20023;-65
2023/03/12 06:35:05;;;;;;;7.72;5.25;;;1.50;1.00;;;;;;7364982;19;20081;-64
2023/03/12 06:37:35;;;;;;;8.52;5.22;;;1.60;1.00;;;;;;7366082;19;20038;-65
2023/03/12 06:40:09;;;;;;;13.75;5.70;;;1.60;1.00;;;;;;7365103;19;20089;-65
2023/03/12 06:42:41;;;;;;;9.05;5.53;;;1.60;1.00;;;;;;7372982;19;20011;-65
2023/03/12 06:45:12;;;;;;;8.93;5.57;;;1.60;1.00;;;;;;7394422;19;20013;-65
2023/03/12 06:47:42;;;;;;;11.35;5.80;;;1.70;1.00;;;;;;7374028;19;20018;-66
2023/03/12 06:50:12;;;;;;;10.48;6.35;;;1.70;1.00;;;;;;7371062;19;20076;-65
2023/03/12 06:52:42;;;;;;;12.50;5.95;;;1.80;1.00;;;;;;7372824;19;20006;-66
2023/03/12 06:55:12;;;;;;;13.15;6.15;;;1.80;1.00;;;;;;7371250;19;20082;-65
2023/03/12 06:57:45;;;;;;;9.48;6.05;;;1.70;1.00;;;;;;7372743;19;20078;-65
2023/03/12 07:00:16;;;;;;;7.65;5.75;;;1.80;1.00;;;;;;7393199;19;20021;-65
2023/03/12 07:02:46;;;;;;;10.05;6.40;;;1.70;1.00;;;;;;7373898;19;20017;-65
2023/03/12 07:05:15;;;;;;;10.95;6.22;;;1.70;1.00;;;;;;7371242;19;20485;-65
2023/03/12 07:07:45;;;;;;;12.70;6.80;;;1.90;1.00;;;;;;7373540;19;20010;-65
2023/03/12 07:10:15;;;;;;;8.65;6.53;;;1.90;1.00;;;;;;7371336;19;20537;-65
2023/03/12 07:12:47;;;;;;;8.93;6.28;;;1.70;1.00;;;;;;7373216;19;20014;-65
2023/03/12 07:15:17;;;;;;;11.93;6.40;;;1.70;1.00;;;;;;7393619;19;20010;-65
2023/03/12 07:17:47;;;;;;;12.25;7.35;;;1.80;3.30;;;;;;7373201;19;20029;-65
2023/03/12 07:20:17;;;;;;;12.75;6.55;;;1.80;4.60;;;;;;7370480;19;20010;-65
2023/03/12 07:22:47;;;;;;;10.07;6.65;;;1.90;6.80;;;;;;7371423;19;20010;-66
2023/03/12 07:25:17;;;;;;;12.90;6.70;;;1.90;8.80;;;;;;7368295;19;20326;-66
2023/03/12 07:27:50;;;;;;;15.38;6.97;;;1.90;10.60;;;;;;7372601;19;20401;-66
2023/03/12 07:30:20;;;;;;;11.88;7.32;;;2.00;13.00;;;;;;7392233;19;20017;-66
2023/03/12 07:32:50;;;;;;;13.57;6.75;;;2.10;13.80;;;;;;7372195;19;20021;-65
2023/03/12 07:35:20;;;;;;;11.30;7.00;;;2.10;14.00;;;;;;7369578;19;20014;-65
2023/03/12 07:37:50;;;;;;;13.70;7.65;;;2.10;13.80;;;;;;7372405;19;20024;-65
2023/03/12 07:40:20;;;;;;;13.13;7.50;;;2.10;14.50;;;;;;7370416;19;20021;-65
2023/03/12 07:42:52;;;;;;;10.55;6.55;;;2.20;15.00;;;;;;7371608;19;20096;-66
2023/03/12 07:45:23;;;;;;;13.70;7.38;;;2.20;15.60;;;;;;7390183;19;20006;-66
2023/03/12 07:47:53;;;;;;;14.38;7.35;;;2.40;16.20;;;;;;7371815;19;20505;-66
2023/03/12 07:50:23;;;;;;;11.20;6.68;;;2.50;15.60;;;;;;7368548;19;20014;-66
2023/03/12 07:52:53;;;;;;;10.55;7.20;;;2.50;14.60;;;;;;7370355;19;20014;-66
2023/03/12 07:55:23;;;;;;;9.45;6.38;;;2.60;15.50;;;;;;7369140;19;20474;-66
2023/03/12 07:57:57;;;;;;;12.23;6.82;;;2.50;14.50;;;;;;7372213;19;20069;-66
2023/03/12 08:00:27;;;;;;;;;;;2.60;15.50;;;;;;7390622;19;20036;-66
2023/03/12 08:02:57;;;;;;;10.50;6.95;;;2.60;14.00;;;;;;7371763;19;19922;-66
2023/03/12 08:05:27;;;;;;;10.20;7.38;;;2.80;14.70;;;;;;7367412;19;20010;-65
2023/03/12 08:07:57;;;;;;;10.88;6.65;;;2.80;14.20;;;;;;7371239;19;20047;-65
2023/03/12 08:10:27;;;;;;;11.32;7.03;;;2.90;14.70;;;;;;7367685;19;20518;-65
2023/03/12 08:12:59;;;;;;;9.63;6.53;;;3.00;14.50;;;;;;7370785;19;20025;-65
2023/03/12 08:15:29;;;;;;;11.18;6.85;;;2.90;12.90;;;;;;7389552;19;20021;-65
2023/03/12 08:18:00;;;;;;;9.88;6.40;;;2.90;14.20;;;;;;7371298;19;20070;-64
2023/03/12 08:20:30;;;;;;;9.50;6.88;;;2.90;14.50;;;;;;7367407;19;20014;-65
2023/03/12 08:23:00;;;;;;;9.48;6.82;;;2.90;15.10;;;;;;7370399;19;20016;-65
2023/03/12 08:25:30;;;;;;;12.38;6.75;;;2.90;15.90;;;;;;7368380;19;20012;-65
2023/03/12 08:28:02;;;;;;;17.52;7.35;;;3.00;16.00;;;;;;7370475;19;20379;-65
2023/03/12 08:30:32;;;;;;;10.45;6.75;;;2.90;15.40;;;;;;7378612;19;20010;-65
2023/03/12 08:33:02;;;;;;;11.93;6.93;;;3.00;15.30;;;;;;7391910;19;20468;-66
2023/03/12 08:35:33;;;;;;;15.13;7.50;;;3.10;15.40;;;;;;7368586;19;20011;-65
2023/03/12 08:38:02;;;;;;;12.50;7.22;;;3.10;15.80;;;;;;7370632;19;20014;-65
2023/03/12 08:40:32;;;;;;;11.02;6.63;;;3.20;16.80;;;;;;7368147;19;20006;-65
2023/03/12 08:43:06;;;;;;;11.43;6.57;;;3.20;16.30;;;;;;7369406;19;20474;-66
2023/03/12 08:45:36;;;;;;;12.65;7.45;;;3.20;15.70;;;;;;7367414;19;20006;-66
2023/03/12 08:48:07;;;;;;;12.88;7.47;;;3.40;17.00;;;;;;7390818;19;20038;-67
2023/03/12 08:50:37;;;;;;;10.13;6.45;;;3.50;17.30;;;;;;7366288;19;20447;-65
2023/03/12 08:53:07;;;;;;;10.82;7.45;;;3.60;16.90;;;;;;7368430;19;20017;-66
2023/03/12 08:55:37;;;;;;;11.27;6.88;;;3.60;17.00;;;;;;7368809;19;20007;-66
2023/03/12 08:58:09;;;;;;;11.18;6.88;;;3.60;16.30;;;;;;7369633;19;20057;-66
2023/03/12 09:00:39;;;;;;;11.57;7.47;;;3.70;18.80;;;;;;7366665;19;20466;-65
2023/03/12 09:03:12;;;;;;;11.85;7.03;;;3.90;18.90;;;;;;7390526;19;20010;-66
2023/03/12 09:05:42;;;;;;;11.33;6.57;;;4.20;19.10;;;;;;7366818;19;20014;-67
2023/03/12 09:08:13;;;;;;;15.02;7.95;;;4.10;16.50;;;;;;7369340;19;20319;-67
2023/03/12 09:10:48;;;;;;;10.07;7.32;;;4.10;15.90;;;;;;7367314;19;20011;-67
2023/03/12 09:13:21;;;;;;;10.90;6.88;;;4.10;17.10;;;;;;7368639;19;20018;-66
2023/03/12 09:15:51;;;;;;;10.73;6.70;;;4.30;16.50;;;;;;7368409;19;20026;-66
2023/03/12 09:18:21;;;;;;;12.90;6.85;;;4.20;15.70;;;;;;7389825;19;20014;-66
2023/03/12 09:20:50;;;;;;;12.18;7.25;;;4.20;15.40;;;;;;7366403;19;20533;-66
2023/03/12 09:23:20;;;;;;;12.85;7.25;;;4.40;16.60;;;;;;7367084;19;20011;-66
2023/03/12 09:25:50;;;;;;;12.45;7.05;;;4.10;15.90;;;;;;7368328;19;20002;-66
2023/03/12 09:28:23;;;;;;;13.32;7.63;;;4.20;16.20;;;;;;7367950;19;20003;-66
2023/03/12 09:30:53;;;;;;;11.57;7.63;;;4.50;17.90;;;;;;7366461;19;20019;-66
2023/03/12 09:33:23;;;;;;;11.25;7.63;;;4.40;16.70;;;;;;7388676;19;20014;-66
2023/03/12 09:35:58;;;;;;;11.60;7.63;;;4.50;16.60;;;;;;7368388;19;20466;-66
2023/03/12 09:38:30;;;;;;;10.55;8.27;;;4.60;15.70;;;;;;7367557;19;20014;-65
2023/03/12 09:41:00;;;;;;;11.60;8.13;;;4.60;15.10;;;;;;7367826;19;20427;-66
2023/03/12 09:43:39;;;;;;;15.80;8.55;;;4.60;15.40;;;;;;7366075;19;20502;-66
2023/03/12 09:46:16;;;;;;;13.80;7.75;;;4.80;15.00;;;;;;7366854;19;20053;-65
2023/03/12 09:48:47;;;;;;;10.68;7.25;;;4.90;14.90;;;;;;7366542;19;20010;-65
2023/03/12 09:51:21;;;;;;;8.20;6.90;;;5.00;15.10;;;;;;7389308;19;20070;-66
2023/03/12 09:53:55;;;;;;;14.13;8.00;;;5.10;13.10;;;;;;7366114;19;20003;-66
2023/03/12 09:56:25;;;;;;;9.50;7.13;;;5.10;15.30;;;;;;7367751;19;20007;-66
2023/03/12 09:58:57;;;;;;;14.38;7.40;;;5.30;15.80;;;;;;7367171;19;20377;-66
2023/03/12 10:01:38;;;;;;;14.65;7.50;;;5.40;15.30;;;;;;7365372;19;20347;-66
2023/03/12 10:04:32;;;;;;;14.00;7.85;;;5.40;13.20;;;;;;7366161;19;20288;-65
2023/03/12 10:07:16;;;;;;;13.57;7.68;;;5.40;12.80;;;;;;7367212;19;20039;-65
2023/03/12 10:10:12;;;;;;;11.60;8.07;;;5.70;16.30;;;;;;7365331;19;20010;-65
2023/03/12 10:13:05;;;;;;;10.82;8.10;;;5.90;14.90;;;;;;7366639;19;20086;-66
2023/03/12 10:15:48;;;;;;;14.95;7.80;;;6.00;15.20;;;;;;7365499;19;20017;-66
2023/03/12 10:18:30;;;;;;;15.52;8.52;;;5.90;14.20;;;;;;7396930;19;20018;-65
2023/03/12 10:21:17;;;;;;;10.50;7.47;;;6.10;15.10;;;;;;7373975;19;20505;-67
2023/03/12 10:24:03;;;;;;;15.30;8.07;;;6.10;15.30;;;;;;7372317;19;20015;-66
2023/03/12 10:26:38;;;;;;;11.25;7.15;;;6.10;13.90;;;;;;7371367;19;20394;-66
2023/03/12 10:29:15;;;;;;;13.68;8.90;;;6.10;14.90;;;;;;7373166;19;20019;-66
2023/03/12 10:31:53;;;;;;;14.18;8.23;;;6.30;16.30;;;;;;7374261;19;20006;-66
2023/03/12 10:34:31;;;;;;;12.63;8.10;;;6.40;15.80;;;;;;7370068;19;20010;-65
2023/03/12 10:37:04;;;;;;;13.07;8.32;;;6.60;17.50;;;;;;7374320;19;20010;-65
2023/03/12 10:39:34;;;;;;;11.70;8.07;;;6.50;14.80;;;;;;7371754;19;20018;-66
2023/03/12 10:42:04;;;;;;;12.23;8.50;;;6.50;17.80;;;;;;7395574;19;20016;-66
2023/03/12 10:44:34;;;;;;;10.60;8.65;;;6.40;18.80;;;;;;7370668;19;20089;-65
2023/03/12 10:47:18;;;;;;;15.43;9.60;;;6.50;20.50;;;;;;7372555;19;20064;-66
2023/03/12 10:49:49;;;;;;;14.35;8.68;;;6.60;21.90;;;;;;7370328;19;20095;-66
2023/03/12 10:52:21;;;;;;;14.10;8.43;;;6.60;22.10;;;;;;7373002;19;20016;-66
2023/03/12 10:54:54;;;;;;;13.23;8.63;;;6.70;22.30;;;;;;7371676;19;20023;-66
2023/03/12 10:57:39;;;;;;;12.10;8.02;;;6.80;22.70;;;;;;7394972;19;20393;-65
2023/03/12 11:00:13;;;;;;;11.43;7.05;;;7.00;23.90;;;;;;7371013;19;20038;-65
2023/03/12 11:02:48;;;;;;;11.10;6.72;;;7.10;23.90;;;;;;7372837;19;20003;-65
2023/03/12 11:05:24;;;;;;;8.23;6.03;;;7.30;24.20;;;;;;7372358;19;20010;-65
2023/03/12 11:07:54;;;;;;;7.05;5.32;;;7.40;23.90;;;;;;7372634;19;20097;-65
2023/03/12 11:10:27;;;;;;;6.95;5.50;;;7.60;24.10;;;;;;7370286;19;20371;-66
2023/03/12 11:13:01;;;;;;;10.25;6.07;;;7.70;24.10;;;;;;7372344;19;20010;-67
2023/03/12 11:15:38;;;;;;;7.22;4.90;;;7.80;23.80;;;;;;7393190;19;20020;-65
2023/03/12 11:18:40;;;;;;;8.13;5.00;;;8.00;24.30;;;;;;7373436;19;20059;-66
2023/03/12 11:21:20;;;;;;;6.22;4.40;;;8.40;23.90;;;;;;7372393;19;20078;-65
2023/03/12 11:24:07;;;;;;;6.25;4.20;;;8.60;21.90;;;;;;7370173;19;20056;-66
2023/03/12 11:26:45;;;;;;;7.60;3.97;;;8.90;22.40;;;;;;7369782;19;20422;-67
2023/03/12 11:29:25;;;;;;;9.10;3.83;;;8.90;19.80;;;;;;7370765;19;20096;-67
2023/03/12 11:32:05;;;;;;;7.40;4.25;;;9.10;19.10;;;;;;7372501;19;20007;-66
2023/03/12 11:34:39;;;;;;;8.45;4.88;;;9.40;19.70;;;;;;7369427;19;20753;-66
2023/03/12 11:37:15;;;;;;;10.32;4.80;;;9.40;17.50;;;;;;7372120;19;20014;-66
2023/03/12 11:39:59;;;;;;;7.78;4.57;;;9.30;17.20;;;;;;7370057;19;20018;-66
2023/03/12 11:42:43;;;;;;;7.50;4.32;;;9.10;19.40;;;;;;7392901;19;20014;-66
2023/03/12 11:45:23;;;;;;;8.38;4.90;;;9.10;19.10;;;;;;7371668;19;20003;-67
2023/03/12 11:48:06;;;;;;;6.85;4.68;;;9.30;19.00;;;;;;7369261;19;20025;-67
2023/03/12 11:50:48;;;;;;;10.23;4.38;;;9.60;18.20;;;;;;7367848;19;20007;-67
2023/03/12 11:53:28;;;;;;;7.00;4.00;;;9.80;17.10;;;;;;7371370;19;20013;-66
2023/03/12 11:56:06;;;;;;;6.43;3.40;;;9.70;16.90;;;;;;7370898;19;20017;-66
2023/03/12 11:59:01;;;;;;;6.35;3.85;;;9.70;15.70;;;;;;7370104;19;20017;-66
2023/03/12 12:01:42;;;;;;;9.50;4.35;;;9.50;17.60;;;;;;7370118;19;20007;-66
2023/03/12 12:04:53;;;;;;;7.43;4.82;;;9.60;19.40;;;;;;7369714;19;20010;-67
2023/03/12 12:07:38;;;;;;;6.95;2.78;;;10.00;19.20;;;;;;7368617;19;20019;-66
2023/03/12 12:10:18;;;;;;;6.40;3.05;;;10.00;16.40;;;;;;7369415;19;20015;-66
2023/03/12 12:12:56;;;;;;;4.97;2.65;;;10.00;16.40;;;;;;7370607;19;20028;-67
2023/03/12 12:15:35;;;;;;;5.43;1.98;;;10.10;16.00;;;;;;7391251;19;20537;-67
2023/03/12 12:18:23;;;;;;;5.35;2.10;;;10.50;15.40;;;;;;7371486;19;20007;-66
2023/03/12 12:21:00;;;;;;;4.53;2.00;;;11.00;11.90;;;;;;7367756;19;20011;-64
2023/03/12 12:23:42;;;;;;;4.43;1.80;;;11.20;8.70;;;;;;7368310;19;20031;-65
2023/03/12 12:26:14;;;;;;;5.63;1.67;;;11.30;2.60;;;;;;7370288;19;20363;-67
2023/03/12 12:28:55;;;;;;;4.40;2.00;;;11.40;1.20;;;;;;7369910;19;20085;-67
2023/03/12 12:31:36;;;;;;;4.80;1.77;;;11.40;1.00;;;;;;7368289;19;20021;-66
2023/03/12 12:34:44;;;;;;;4.68;2.05;;;11.30;1.00;;;;;;7368452;19;20705;-66
2023/03/12 12:37:23;;;;;;;5.38;2.20;;;11.30;1.00;;;;;;7366093;19;20098;-67
2023/03/12 12:40:07;;;;;;;6.45;1.67;;;11.30;1.00;;;;;;7366644;19;20024;-67
2023/03/12 12:42:44;;;;;;;4.45;1.95;;;11.50;1.00;;;;;;7368610;19;20022;-66
2023/03/12 12:45:17;;;;;;;5.07;1.83;;;11.40;1.00;;;;;;7390914;19;20070;-66
2023/03/12 12:47:51;;;;;;;6.25;1.90;;;11.50;1.00;;;;;;7368478;19;20022;-66
2023/03/12 12:50:22;;;;;;;;;;;11.60;1.00;;;;;;7366664;19;20011;-66
2023/03/12 12:52:58;;;;;;;6.60;1.85;;;11.40;1.00;;;;;;7368775;19;20367;-66
2023/03/12 12:55:36;;;;;;;5.53;1.38;;;11.40;1.00;;;;;;7368164;19;20014;-67
2023/03/12 12:58:15;;;;;;;4.53;1.30;;;11.20;1.00;;;;;;7369407;19;20046;-66
2023/03/12 13:00:49;;;;;;;4.43;1.70;;;11.10;1.00;;;;;;7367370;19;20020;-66
2023/03/12 13:03:22;;;;;;;6.25;2.22;;;10.90;1.00;;;;;;7390180;19;20006;-67
2023/03/12 13:05:58;;;;;;;5.10;2.03;;;11.10;1.00;;;;;;7369094;19;20010;-66
2023/03/12 13:08:37;;;;;;;5.03;1.88;;;11.00;1.00;;;;;;7367441;19;20066;-66
2023/03/12 13:11:27;;;;;;;3.38;2.00;;;11.10;1.00;;;;;;7368919;19;20014;-67
2023/03/12 13:14:22;;;;;;;5.05;1.55;;;11.10;1.00;;;;;;7367260;19;20085;-66
2023/03/12 13:17:07;;;;;;;;;;;11.00;1.00;;;;;;7369887;19;20093;-67
2023/03/12 13:19:43;;;;;;;4.07;1.52;;;10.90;1.00;;;;;;7367324;19;19925;-66
2023/03/12 13:22:32;;;;;;;6.20;1.90;;;10.90;1.00;;;;;;7368126;19;20016;-66